Sao Jose do Goiabal, Brazil
Current Conditions -  °F | °C
As of 2:00 PM on Thursday 30 Oct 2014 (Local Time) from SBIP Reporting Station
Broken Clouds Broken Clouds  
Wind Chill: 79°   Ceiling: 6000
Heat Index: 81°   Visibility: 6mi
Dew Point: 66°   Wind: 9mph
Humidity: 65%   Direction: 50°NE
Pressure: 29.91"   Gusts: NA
Location:  19.93°S, 42.7°W
Report Text: SBIP 301600Z 05008KT 9999 SCT025 BKN060 26/19 Q1013
Loading
Personal Weather Stations






























Interactive Weather Map
Tropical Storm Tracking
New forecast layout! Learn more

10-Day Weather Forecast

Advertisements
Track Severe Weather on mobile